createdAt,value
2023-03-04T00:00:32.965Z,16.90
2023-03-04T00:03:00.693Z,15.15
2023-03-04T00:05:28.513Z,16.02
2023-03-04T00:07:56.038Z,15.70
2023-03-04T00:10:25.560Z,15.52
2023-03-04T00:12:53.129Z,16.58
2023-03-04T00:15:20.701Z,15.85
2023-03-04T00:17:48.257Z,15.07
2023-03-04T00:20:15.800Z,15.73
2023-03-04T00:22:43.410Z,14.90
2023-03-04T00:25:11.013Z,15.40
2023-03-04T00:27:39.991Z,16.70
2023-03-04T00:30:08.940Z,15.35
2023-03-04T00:32:36.617Z,15.43
2023-03-04T00:35:05.151Z,15.80
2023-03-04T00:37:32.704Z,16.17
2023-03-04T00:40:00.512Z,15.90
2023-03-04T00:42:28.211Z,15.32
2023-03-04T00:44:57.175Z,14.52
2023-03-04T00:47:24.836Z,16.42
2023-03-04T00:49:52.472Z,15.88
2023-03-04T00:52:20.110Z,15.55
2023-03-04T00:54:47.747Z,15.27
2023-03-04T00:57:15.419Z,13.57
2023-03-04T00:59:43.753Z,15.65
2023-03-04T01:02:13.316Z,15.50
2023-03-04T01:04:41.791Z,15.20
2023-03-04T01:07:09.688Z,15.65
2023-03-04T01:09:37.284Z,15.13
2023-03-04T01:12:05.186Z,14.93
2023-03-04T01:14:32.829Z,15.80
2023-03-04T01:17:00.700Z,13.73
2023-03-04T01:19:29.644Z,13.52
2023-03-04T01:21:57.585Z,14.07
2023-03-04T01:24:25.212Z,13.23
2023-03-04T01:26:52.953Z,14.18
2023-03-04T01:29:23.137Z,13.27
2023-03-04T01:31:50.826Z,14.55
2023-03-04T01:34:21.156Z,13.77
2023-03-04T01:36:50.061Z,13.93
2023-03-04T01:39:19.424Z,13.45
2023-03-04T01:41:47.321Z,14.05
2023-03-04T01:44:15.234Z,14.18
2023-03-04T01:46:47.596Z,13.98
2023-03-04T01:49:17.084Z,14.30
2023-03-04T01:51:46.579Z,13.27
2023-03-04T01:54:15.525Z,13.13
2023-03-04T01:56:46.631Z,13.75
2023-03-04T01:59:16.412Z,13.98
2023-03-04T02:01:45.975Z,14.95
2023-03-04T02:04:14.401Z,13.20
2023-03-04T02:06:42.539Z,13.63
2023-03-04T02:09:11.015Z,13.60
2023-03-04T02:11:40.654Z,14.52
2023-03-04T02:14:08.722Z,14.02
2023-03-04T02:16:36.389Z,14.52
2023-03-04T02:19:08.288Z,15.63
2023-03-04T02:21:36.016Z,13.50
2023-03-04T02:24:15.142Z,14.52
2023-03-04T02:26:46.845Z,13.73
2023-03-04T02:29:16.876Z,13.55
2023-03-04T02:31:46.533Z,13.75
2023-03-04T02:34:17.155Z,14.35
2023-03-04T02:36:46.482Z,13.50
2023-03-04T02:39:26.230Z,13.50
2023-03-04T02:41:57.202Z,15.15
2023-03-04T02:44:27.785Z,14.82
2023-03-04T02:46:56.782Z,13.68
2023-03-04T02:49:28.909Z,13.65
2023-03-04T02:52:01.526Z,13.52
2023-03-04T02:54:29.421Z,14.27
2023-03-04T02:57:02.071Z,13.35
2023-03-04T02:59:29.982Z,13.82
2023-03-04T03:01:58.056Z,14.07
2023-03-04T03:04:26.989Z,13.43
2023-03-04T03:06:55.715Z,13.90
2023-03-04T03:09:23.336Z,13.77
2023-03-04T03:11:51.147Z,13.85
2023-03-04T03:14:20.346Z,14.10
2023-03-04T03:16:48.219Z,12.93
2023-03-04T03:19:15.923Z,13.02
2023-03-04T03:21:43.785Z,13.02
2023-03-04T03:24:12.173Z,13.52
2023-03-04T03:26:40.880Z,13.63
2023-03-04T03:29:09.022Z,13.15
2023-03-04T03:31:38.076Z,13.02
2023-03-04T03:34:05.633Z,12.32
2023-03-04T03:36:33.337Z,13.43
2023-03-04T03:39:00.919Z,13.50
2023-03-04T03:41:28.505Z,13.43
2023-03-04T03:43:56.930Z,12.63
2023-03-04T03:46:24.548Z,13.60
2023-03-04T03:48:53.495Z,13.13
2023-03-04T03:51:21.184Z,12.55
2023-03-04T03:53:48.783Z,13.23
2023-03-04T03:56:16.452Z,12.77
2023-03-04T03:58:44.201Z,12.35
2023-03-04T04:01:11.818Z,12.07
2023-03-04T04:03:39.422Z,13.25
2023-03-04T04:06:08.734Z,11.98
2023-03-04T04:08:36.334Z,12.05
2023-03-04T04:11:03.954Z,11.95
2023-03-04T04:13:31.783Z,11.90
2023-03-04T04:15:59.478Z,12.50
2023-03-04T04:18:27.123Z,13.70
2023-03-04T04:20:54.850Z,13.38
2023-03-04T04:23:24.393Z,13.55
2023-03-04T04:25:52.150Z,13.98
2023-03-04T04:28:19.757Z,11.95
2023-03-04T04:30:47.500Z,12.38
2023-03-04T04:33:15.159Z,12.43
2023-03-04T04:35:42.982Z,12.15
2023-03-04T04:38:11.222Z,12.02
2023-03-04T04:40:40.082Z,13.23
2023-03-04T04:43:07.800Z,12.40
2023-03-04T04:45:35.912Z,12.82
2023-03-04T04:48:03.514Z,13.10
2023-03-04T04:50:32.952Z,13.32
2023-03-04T04:53:00.772Z,11.80
2023-03-04T04:55:28.418Z,12.63
2023-03-04T04:57:57.386Z,12.20
2023-03-04T05:00:25.025Z,12.05
2023-03-04T05:02:52.624Z,11.75
2023-03-04T05:05:20.271Z,13.38
2023-03-04T05:07:47.795Z,12.18
2023-03-04T05:10:15.402Z,12.85
2023-03-04T05:12:45.495Z,13.18
2023-03-04T05:15:14.489Z,13.23
2023-03-04T05:17:42.184Z,11.77
2023-03-04T05:20:11.025Z,12.93
2023-03-04T05:22:38.614Z,12.15
2023-03-04T05:25:07.078Z,12.05
2023-03-04T05:27:34.882Z,12.45
2023-03-04T05:30:02.462Z,13.48
2023-03-04T05:32:31.453Z,12.13
2023-03-04T05:34:59.005Z,13.32
2023-03-04T05:37:26.694Z,12.70
2023-03-04T05:39:54.256Z,12.57
2023-03-04T05:42:21.935Z,11.32
2023-03-04T05:44:49.560Z,12.60
2023-03-04T05:47:17.222Z,12.82
2023-03-04T05:49:46.164Z,11.68
2023-03-04T05:52:13.745Z,12.07
2023-03-04T05:54:41.373Z,13.02
2023-03-04T05:57:08.975Z,12.02
2023-03-04T05:59:36.656Z,12.65
2023-03-04T06:02:04.952Z,13.82
2023-03-04T06:04:32.604Z,13.68
2023-03-04T06:07:01.574Z,13.75
2023-03-04T06:09:29.102Z,13.02
2023-03-04T06:11:56.663Z,13.15
2023-03-04T06:14:24.353Z,14.13
2023-03-04T06:16:51.974Z,12.13
2023-03-04T06:19:19.805Z,12.30
2023-03-04T06:21:48.096Z,12.85
2023-03-04T06:24:17.131Z,12.85
2023-03-04T06:26:44.707Z,13.13
2023-03-04T06:29:12.879Z,13.65
2023-03-04T06:31:41.789Z,13.70
2023-03-04T06:34:09.794Z,20.20
2023-03-04T06:36:37.452Z,23.48
2023-03-04T06:39:05.642Z,22.90
2023-03-04T06:41:35.193Z,16.60
2023-03-04T06:44:02.885Z,13.32
2023-03-04T06:46:30.666Z,13.35
2023-03-04T06:48:58.338Z,12.88
2023-03-04T06:51:26.028Z,12.35
2023-03-04T06:53:53.615Z,13.23
2023-03-04T06:56:21.264Z,15.85
2023-03-04T06:58:50.173Z,13.80
2023-03-04T07:01:19.767Z,12.82
2023-03-04T07:03:48.712Z,12.68
2023-03-04T07:06:18.329Z,13.30
2023-03-04T07:08:46.684Z,12.77
2023-03-04T07:11:14.957Z,14.23
2023-03-04T07:13:42.554Z,12.63
2023-03-04T07:16:14.078Z,12.65
2023-03-04T07:18:41.817Z,13.73
2023-03-04T07:21:09.646Z,12.73
2023-03-04T07:23:38.708Z,13.40
2023-03-04T07:26:07.116Z,12.65
2023-03-04T07:28:35.110Z,13.90
2023-03-04T07:31:11.843Z,14.68
2023-03-04T07:33:39.374Z,14.02
2023-03-04T07:36:07.266Z,14.00
2023-03-04T07:38:34.804Z,14.27
2023-03-04T07:41:02.935Z,14.10
2023-03-04T07:43:30.519Z,14.48
2023-03-04T07:46:01.575Z,14.43
2023-03-04T07:48:30.625Z,19.42
2023-03-04T07:51:06.921Z,17.45
2023-03-04T07:53:34.936Z,13.52
2023-03-04T07:56:02.929Z,14.32
2023-03-04T07:58:30.827Z,13.48
2023-03-04T08:00:58.500Z,14.35
2023-03-04T08:03:26.244Z,14.45
2023-03-04T08:05:55.182Z,15.00
2023-03-04T08:08:22.698Z,16.85
2023-03-04T08:10:50.237Z,14.98
2023-03-04T08:13:17.745Z,14.18
2023-03-04T08:15:45.316Z,14.80
2023-03-04T08:18:12.922Z,14.90
2023-03-04T08:20:43.041Z,16.60
2023-03-04T08:23:12.072Z,15.05
2023-03-04T08:25:40.453Z,15.00
2023-03-04T08:28:08.837Z,15.38
2023-03-04T08:30:37.501Z,16.60
2023-03-04T08:33:05.171Z,16.13
2023-03-04T08:35:34.984Z,16.75
2023-03-04T08:38:02.682Z,16.90
2023-03-04T08:40:31.562Z,15.80
2023-03-04T08:42:59.116Z,17.17
2023-03-04T08:45:26.729Z,16.45
2023-03-04T08:47:54.360Z,16.05
2023-03-04T08:50:22.665Z,16.00
2023-03-04T08:52:50.381Z,16.48
2023-03-04T08:55:18.134Z,16.10
2023-03-04T08:57:47.124Z,16.05
2023-03-04T09:00:15.564Z,15.88
2023-03-04T09:02:43.133Z,16.50
2023-03-04T09:05:10.858Z,17.13
2023-03-04T09:07:38.359Z,16.95
2023-03-04T09:10:07.235Z,16.58
2023-03-04T09:12:34.762Z,16.02
2023-03-04T09:15:11.485Z,18.27
2023-03-04T09:17:40.060Z,16.02
2023-03-04T09:20:10.218Z,17.42
2023-03-04T09:22:37.870Z,17.42
2023-03-04T09:25:10.365Z,16.42
2023-03-04T09:27:39.781Z,15.90
2023-03-04T09:30:10.430Z,15.38
2023-03-04T09:32:38.087Z,15.80
2023-03-04T09:35:07.044Z,16.10
2023-03-04T09:37:34.864Z,16.27
2023-03-04T09:40:02.726Z,15.95
2023-03-04T09:42:37.744Z,15.43
2023-03-04T09:45:08.348Z,16.38
2023-03-04T09:47:39.098Z,17.83
2023-03-04T09:50:10.163Z,17.13
2023-03-04T09:52:49.837Z,16.70
2023-03-04T09:55:25.229Z,16.00
2023-03-04T09:57:57.845Z,17.00
2023-03-04T10:00:31.748Z,22.70
2023-03-04T10:03:13.167Z,19.42
2023-03-04T10:05:45.241Z,18.23
2023-03-04T10:08:34.185Z,17.38
2023-03-04T10:11:04.759Z,18.40
2023-03-04T10:13:38.792Z,20.35
2023-03-04T10:16:10.251Z,19.80
2023-03-04T10:18:42.413Z,18.48
2023-03-04T10:21:21.074Z,18.77
2023-03-04T10:23:50.624Z,20.05
2023-03-04T10:26:21.508Z,19.67
2023-03-04T10:28:49.790Z,20.30
2023-03-04T10:31:22.856Z,19.65
2023-03-04T10:33:51.794Z,21.38
2023-03-04T10:36:37.532Z,20.38
2023-03-04T10:39:10.712Z,19.92
2023-03-04T10:41:42.841Z,19.15
2023-03-04T10:44:17.296Z,19.23
2023-03-04T10:46:46.459Z,18.95
2023-03-04T10:49:17.276Z,18.40
2023-03-04T10:51:46.487Z,19.85
2023-03-04T10:54:25.092Z,18.00
2023-03-04T10:57:01.268Z,17.27
2023-03-04T10:59:35.452Z,19.08
2023-03-04T11:02:15.856Z,17.77
2023-03-04T11:04:51.340Z,18.48
2023-03-04T11:07:19.000Z,18.27
2023-03-04T11:09:46.674Z,17.50
2023-03-04T11:12:16.857Z,17.30
2023-03-04T11:14:49.048Z,17.45
2023-03-04T11:17:24.985Z,17.55
2023-03-04T11:19:58.935Z,16.67
2023-03-04T11:22:29.402Z,16.70
2023-03-04T11:25:02.103Z,17.10
2023-03-04T11:27:39.197Z,16.05
2023-03-04T11:30:22.869Z,16.13
2023-03-04T11:35:27.819Z,13.77
2023-03-04T11:38:02.786Z,17.83
2023-03-04T11:40:37.254Z,16.63
2023-03-04T11:43:12.276Z,21.90
2023-03-04T11:46:05.576Z,16.38
2023-03-04T11:48:45.502Z,15.95
2023-03-04T11:51:24.523Z,15.50
2023-03-04T11:54:04.418Z,16.17
2023-03-04T11:56:36.030Z,15.38
2023-03-04T11:59:27.038Z,13.93
2023-03-04T12:02:12.978Z,15.77
2023-03-04T12:05:06.106Z,15.35
2023-03-04T12:07:52.472Z,14.30
2023-03-04T12:10:29.194Z,15.90
2023-03-04T12:13:22.846Z,13.95
2023-03-04T12:15:59.997Z,14.25
2023-03-04T12:18:40.778Z,14.20
2023-03-04T12:21:23.672Z,15.75
2023-03-04T12:24:27.392Z,16.00
2023-03-04T12:27:01.484Z,15.60
2023-03-04T12:29:40.217Z,17.23
2023-03-04T12:32:18.699Z,15.48
2023-03-04T12:34:58.489Z,14.75
2023-03-04T12:37:45.615Z,14.63
2023-03-04T12:40:43.160Z,15.75
2023-03-04T12:43:31.514Z,17.90
2023-03-04T12:46:09.279Z,15.40
2023-03-04T12:48:40.211Z,14.80
2023-03-04T12:51:22.797Z,16.48
2023-03-04T12:54:01.824Z,14.95
2023-03-04T12:56:37.916Z,15.02
2023-03-04T12:59:06.940Z,14.73
2023-03-04T13:01:41.230Z,14.98
2023-03-04T13:04:15.686Z,15.40
2023-03-04T13:06:48.801Z,14.18
2023-03-04T13:09:25.416Z,16.92
2023-03-04T13:12:03.730Z,15.75
2023-03-04T13:14:36.004Z,14.88
2023-03-04T13:17:25.062Z,16.30
2023-03-04T13:19:57.089Z,14.73
2023-03-04T13:22:36.285Z,16.30
2023-03-04T13:25:31.870Z,15.50
2023-03-04T13:28:16.167Z,17.05
2023-03-04T13:31:07.688Z,14.82
2023-03-04T13:34:04.396Z,20.95
2023-03-04T13:37:00.176Z,19.67
2023-03-04T13:39:33.134Z,18.02
2023-03-04T13:42:01.309Z,15.15
2023-03-04T13:45:05.826Z,16.30
2023-03-04T13:47:49.315Z,16.70
2023-03-04T13:50:25.114Z,15.25
2023-03-04T13:52:53.038Z,15.20
2023-03-04T13:55:37.020Z,15.38
2023-03-04T13:58:18.178Z,16.27
2023-03-04T14:00:50.910Z,16.40
2023-03-04T14:03:25.684Z,16.13
2023-03-04T14:06:16.918Z,15.43
2023-03-04T14:08:45.205Z,15.90
2023-03-04T14:11:15.137Z,14.93
2023-03-04T14:13:43.421Z,15.95
2023-03-04T14:16:11.153Z,16.15
2023-03-04T14:18:41.234Z,14.82
2023-03-04T14:21:08.744Z,14.75
2023-03-04T14:23:37.204Z,16.20
2023-03-04T14:26:07.692Z,15.90
2023-03-04T14:28:43.919Z,15.23
2023-03-04T14:31:17.470Z,14.30
2023-03-04T14:33:49.122Z,14.20
2023-03-04T14:36:21.013Z,13.23
2023-03-04T14:38:54.705Z,14.20
2023-03-04T14:41:26.971Z,14.93
2023-03-04T14:44:01.275Z,15.50
2023-03-04T14:46:35.167Z,14.80
2023-03-04T14:49:04.604Z,13.55
2023-03-04T14:51:38.593Z,14.57
2023-03-04T14:54:06.684Z,14.25
2023-03-04T14:56:36.462Z,14.68
2023-03-04T14:59:04.356Z,13.82
2023-03-04T15:01:34.652Z,15.65
2023-03-04T15:04:05.732Z,14.20
2023-03-04T15:06:35.175Z,14.27
2023-03-04T15:09:05.857Z,15.50
2023-03-04T15:11:47.949Z,13.60
2023-03-04T15:14:41.839Z,13.73
2023-03-04T15:20:00.665Z,13.60
2023-03-04T15:22:28.275Z,13.18
2023-03-04T15:24:56.453Z,13.32
2023-03-04T15:27:26.338Z,14.45
2023-03-04T15:29:56.051Z,13.10
2023-03-04T15:32:24.245Z,14.63
2023-03-04T15:34:51.829Z,13.82
2023-03-04T15:37:24.076Z,14.07
2023-03-04T15:39:52.524Z,12.45
2023-03-04T15:42:20.690Z,13.13
2023-03-04T15:44:48.378Z,13.13
2023-03-04T15:47:15.954Z,14.18
2023-03-04T15:49:47.242Z,14.88
2023-03-04T15:52:18.848Z,13.98
2023-03-04T15:54:48.996Z,13.63
2023-03-04T15:57:22.286Z,12.98
2023-03-04T15:59:49.918Z,12.93
2023-03-04T16:02:21.578Z,12.88
2023-03-04T16:04:49.150Z,12.30
2023-03-04T16:07:19.554Z,12.98
2023-03-04T16:09:53.299Z,13.80
2023-03-04T16:12:20.934Z,13.20
2023-03-04T16:14:49.191Z,15.05
2023-03-04T16:17:16.921Z,12.77
2023-03-04T16:19:44.569Z,15.50
2023-03-04T16:22:14.444Z,16.20
2023-03-04T16:24:42.177Z,13.60
2023-03-04T16:27:14.147Z,13.02
2023-03-04T16:29:42.247Z,12.25
2023-03-04T16:32:10.116Z,13.65
2023-03-04T16:34:37.893Z,15.50
2023-03-04T16:37:12.514Z,16.10
2023-03-04T16:39:44.008Z,14.07
2023-03-04T16:42:18.842Z,14.85
2023-03-04T16:44:46.712Z,15.45
2023-03-04T16:47:14.333Z,13.90
2023-03-04T16:49:41.917Z,13.88
2023-03-04T16:52:21.212Z,16.85
2023-03-04T16:54:49.764Z,17.52
2023-03-04T16:57:18.796Z,23.05
2023-03-04T16:59:46.926Z,17.67
2023-03-04T17:02:16.193Z,16.63
2023-03-04T17:04:44.663Z,15.52
2023-03-04T17:07:13.007Z,16.13
2023-03-04T17:09:41.098Z,14.73
2023-03-04T17:12:11.850Z,16.13
2023-03-04T17:14:41.195Z,17.05
2023-03-04T17:17:08.984Z,16.25
2023-03-04T17:19:36.688Z,15.98
2023-03-04T17:22:04.447Z,16.30
2023-03-04T17:24:32.392Z,17.20
2023-03-04T17:27:00.025Z,15.60
2023-03-04T17:29:27.686Z,15.07
2023-03-04T17:31:56.568Z,16.05
2023-03-04T17:34:24.216Z,14.20
2023-03-04T17:36:51.765Z,14.38
2023-03-04T17:39:19.455Z,15.50
2023-03-04T17:41:47.271Z,14.05
2023-03-04T17:44:15.653Z,14.10
2023-03-04T17:46:43.405Z,14.23
2023-03-04T17:49:13.033Z,14.02
2023-03-04T17:51:41.637Z,15.25
2023-03-04T17:54:11.091Z,15.00
2023-03-04T17:56:40.564Z,16.52
2023-03-04T17:59:09.907Z,14.80
2023-03-04T18:01:37.543Z,15.20
2023-03-04T18:04:05.544Z,15.27
2023-03-04T18:06:34.448Z,16.25
2023-03-04T18:09:02.062Z,14.32
2023-03-04T18:11:30.968Z,14.18
2023-03-04T18:13:58.722Z,16.55
2023-03-04T18:16:27.099Z,16.95
2023-03-04T18:18:57.635Z,15.98
2023-03-04T18:21:26.130Z,16.83
2023-03-04T18:23:55.399Z,15.77
2023-03-04T18:26:23.571Z,17.23
2023-03-04T18:28:51.467Z,15.40
2023-03-04T18:31:19.739Z,14.93
2023-03-04T18:33:47.891Z,16.95
2023-03-04T18:36:16.117Z,16.13
2023-03-04T18:38:43.830Z,15.65
2023-03-04T18:41:14.682Z,16.10
2023-03-04T18:43:42.715Z,14.00
2023-03-04T18:46:12.749Z,14.43
2023-03-04T18:48:44.368Z,14.82
2023-03-04T18:51:12.214Z,15.82
2023-03-04T18:53:40.242Z,17.05
2023-03-04T18:56:12.581Z,16.27
2023-03-04T18:58:44.753Z,17.50
2023-03-04T19:01:14.958Z,18.40
2023-03-04T19:03:43.277Z,16.73
2023-03-04T19:06:11.325Z,15.07
2023-03-04T19:08:39.347Z,14.30
2023-03-04T19:11:06.992Z,15.18
2023-03-04T19:13:35.052Z,14.75
2023-03-04T19:16:04.042Z,15.35
2023-03-04T19:18:31.600Z,15.82
2023-03-04T19:21:00.510Z,16.15
2023-03-04T19:23:29.209Z,15.90
2023-03-04T19:25:56.906Z,16.50
2023-03-04T19:28:24.912Z,14.35
2023-03-04T19:30:53.805Z,16.85
2023-03-04T19:33:22.749Z,18.67
2023-03-04T19:35:50.442Z,17.17
2023-03-04T19:38:18.048Z,18.13
2023-03-04T19:40:46.731Z,18.35
2023-03-04T19:43:14.750Z,16.95
2023-03-04T19:45:42.663Z,18.83
2023-03-04T19:48:10.301Z,16.05
2023-03-04T19:50:39.234Z,16.33
2023-03-04T19:53:06.803Z,15.10
2023-03-04T19:55:37.879Z,14.55
2023-03-04T19:58:05.440Z,14.75
2023-03-04T20:00:33.067Z,14.68
2023-03-04T20:03:01.681Z,14.02
2023-03-04T20:05:29.352Z,14.60
2023-03-04T20:07:58.215Z,14.63
2023-03-04T20:10:25.840Z,16.08
2023-03-04T20:12:55.325Z,13.32
2023-03-04T20:15:22.981Z,14.05
2023-03-04T20:17:50.546Z,14.82
2023-03-04T20:20:18.495Z,12.80
2023-03-04T20:22:46.248Z,13.90
2023-03-04T20:25:15.107Z,15.35
2023-03-04T20:27:43.901Z,16.05
2023-03-04T20:30:12.765Z,17.95
2023-03-04T20:32:40.376Z,18.02
2023-03-04T20:35:13.859Z,16.50
2023-03-04T20:37:42.373Z,15.45
2023-03-04T20:40:12.132Z,14.30
2023-03-04T20:42:41.263Z,14.57
2023-03-04T20:45:09.608Z,13.40
2023-03-04T20:47:39.532Z,14.20
2023-03-04T20:50:07.762Z,15.63
2023-03-04T20:52:35.395Z,13.43
2023-03-04T20:55:03.020Z,14.30
2023-03-04T20:57:31.198Z,14.82
2023-03-04T21:00:00.145Z,13.85
2023-03-04T21:02:27.712Z,13.43
2023-03-04T21:04:55.565Z,12.88
2023-03-04T21:07:24.284Z,16.80
2023-03-04T21:09:51.849Z,15.43
2023-03-04T21:12:19.492Z,14.85
2023-03-04T21:14:47.500Z,14.43
2023-03-04T21:17:16.667Z,14.35
2023-03-04T21:19:44.309Z,14.25
2023-03-04T21:22:15.968Z,14.75
2023-03-04T21:24:45.339Z,14.43
2023-03-04T21:27:13.484Z,13.05
2023-03-04T21:29:41.212Z,13.40
2023-03-04T21:32:23.712Z,13.93
2023-03-04T21:34:54.788Z,13.88
2023-03-04T21:37:23.905Z,13.93
2023-03-04T21:39:51.819Z,14.05
2023-03-04T21:42:19.957Z,14.85
2023-03-04T21:44:50.345Z,16.45
2023-03-04T21:47:19.110Z,13.65
2023-03-04T21:49:46.736Z,14.35
2023-03-04T21:52:15.708Z,14.25
2023-03-04T21:54:43.284Z,14.00
2023-03-04T21:57:11.308Z,14.27
2023-03-04T21:59:39.259Z,13.30
2023-03-04T22:02:07.588Z,13.63
2023-03-04T22:04:35.505Z,13.85
2023-03-04T22:07:03.106Z,13.65
2023-03-04T22:09:33.056Z,12.80
2023-03-04T22:12:00.618Z,12.48
2023-03-04T22:14:29.425Z,14.98
2023-03-04T22:16:57.229Z,21.75
2023-03-04T22:19:26.462Z,15.90
2023-03-04T22:21:55.233Z,14.02
2023-03-04T22:24:23.600Z,13.18
2023-03-04T22:26:52.642Z,11.93
2023-03-04T22:29:20.173Z,13.55
2023-03-04T22:31:47.987Z,12.52
2023-03-04T22:34:16.697Z,12.82
2023-03-04T22:36:46.444Z,11.55
2023-03-04T22:39:19.044Z,12.70
2023-03-04T22:41:46.881Z,13.02
2023-03-04T22:44:15.782Z,12.52
2023-03-04T22:46:43.809Z,11.68
2023-03-04T22:49:13.721Z,12.43
2023-03-04T22:51:42.870Z,12.82
2023-03-04T22:54:12.536Z,12.60
2023-03-04T22:56:40.191Z,12.65
2023-03-04T22:59:07.728Z,13.25
2023-03-04T23:01:36.728Z,15.65
2023-03-04T23:04:04.338Z,13.70
2023-03-04T23:06:31.980Z,12.32
2023-03-04T23:09:00.185Z,12.98
2023-03-04T23:11:30.083Z,12.13
2023-03-04T23:13:59.029Z,11.90
2023-03-04T23:16:28.409Z,12.65
2023-03-04T23:18:59.419Z,12.18
2023-03-04T23:21:28.568Z,12.50
2023-03-04T23:23:56.282Z,11.65
2023-03-04T23:26:26.758Z,12.45
2023-03-04T23:28:56.819Z,12.15
2023-03-04T23:31:25.518Z,11.23
2023-03-04T23:33:57.249Z,12.68
2023-03-04T23:36:29.646Z,12.27
2023-03-04T23:38:57.751Z,12.10
2023-03-04T23:41:28.077Z,11.68
2023-03-04T23:43:56.942Z,10.98
2023-03-04T23:46:25.490Z,10.98
2023-03-04T23:48:53.999Z,12.23
2023-03-04T23:51:23.083Z,12.05
2023-03-04T23:53:52.417Z,10.65
2023-03-04T23:56:22.506Z,11.30
2023-03-04T23:58:50.396Z,11.55
